.
WxDataArchive / Data Records for 2012-05-30
2012-05-29 May 2012 2012-05-31

Data Records for Wednesday, 30 May 2012

Time	Temp	Chill	HIndex	Humid	Dewpt	 Wind 	HiWind	WindDir	Rain 	Barom 
-----	----	-----	------	-----	-----	------	------	-------	-----	----- 
00:00	70.9	70.9	70.9	37	43.3	0	1	292	0.00	29.809 
00:05	70.6	70.6	70.6	37	43.1	1	2	292	0.00	29.809 
00:10	70.3	70.3	70.3	38	43.5	0	2	315	0.00	29.809 
00:15	69.8	69.8	69.8	38	43.0	0	3	315	0.00	29.811 
00:20	69.6	69.6	69.6	35	40.7	1	3	315	0.00	29.811 
00:25	69.3	69.3	69.3	35	40.5	0	2	315	0.00	29.811 
00:30	69.1	69.1	69.1	35	40.3	0	3	315	0.00	29.813 
00:35	68.8	68.8	68.8	36	40.7	0	1	315	0.00	29.813 
00:40	68.6	68.6	68.6	36	40.6	0	1	315	0.00	29.813 
00:45	68.3	68.3	68.3	36	40.3	0	1	315	0.00	29.814 
00:50	67.8	67.8	67.8	37	40.6	0	0	---	0.00	29.814 
00:55	67.4	67.4	67.4	37	40.2	0	0	---	0.00	29.814 
01:00	66.9	66.9	66.9	38	40.5	0	0	---	0.00	29.814 
01:05	66.4	66.4	66.4	39	40.7	0	0	---	0.00	29.814 
01:10	66.0	66.0	66.0	40	41.0	0	0	---	0.00	29.814 
01:15	65.3	65.3	65.3	41	41.0	0	0	---	0.00	29.811 
01:20	64.8	64.8	64.8	43	41.8	0	0	---	0.00	29.811 
01:25	64.3	64.3	64.3	44	41.9	0	0	---	0.00	29.811 
01:30	63.7	63.7	63.7	45	42.0	0	0	---	0.00	29.811 
01:35	63.2	63.2	63.2	46	42.1	0	0	---	0.00	29.811 
01:40	62.7	62.7	62.7	47	42.2	0	0	---	0.00	29.811 
01:45	62.3	62.3	62.3	49	42.9	0	0	---	0.00	29.811 
01:50	61.8	61.8	61.8	50	43.0	0	0	---	0.00	29.811 
01:55	61.3	61.3	61.3	51	43.0	0	0	---	0.00	29.811 
02:00	61.0	61.0	61.0	52	43.2	0	0	---	0.00	29.814 
02:05	60.7	60.7	60.7	53	43.5	0	0	---	0.00	29.814 
02:10	60.4	60.4	60.4	54	43.7	0	0	---	0.00	29.814 
02:15	59.9	59.9	59.9	55	43.7	0	0	---	0.00	29.812 
02:20	59.6	59.6	59.6	55	43.4	0	0	---	0.00	29.812 
02:25	59.3	59.3	59.3	56	43.6	0	0	---	0.00	29.812 
02:30	58.9	58.9	58.9	57	43.7	0	0	---	0.00	29.809 
02:35	58.6	58.6	58.6	58	43.9	0	0	---	0.00	29.809 
02:40	58.4	58.4	58.4	59	44.1	0	0	---	0.00	29.809 
02:45	58.1	58.1	58.1	59	43.8	0	0	---	0.00	29.812 
02:50	58.0	58.0	58.0	60	44.2	0	0	---	0.00	29.812 
02:55	57.8	57.8	57.8	61	44.4	0	0	---	0.00	29.812 
03:00	57.6	57.6	57.6	61	44.2	0	0	---	0.00	29.812 
03:05	57.5	57.5	57.5	62	44.6	0	0	---	0.00	29.812 
03:10	57.3	57.3	57.3	63	44.8	0	0	---	0.00	29.812 
03:15	57.3	57.3	57.3	63	44.8	0	0	---	0.00	29.814 
03:20	57.0	57.0	57.0	63	44.5	0	0	---	0.00	29.814 
03:25	56.9	56.9	56.9	64	44.8	0	0	---	0.00	29.814 
03:30	56.6	56.6	56.6	65	45.0	0	0	---	0.00	29.815 
03:35	56.5	56.5	56.5	65	44.9	0	0	---	0.00	29.815 
03:40	56.3	56.3	56.3	66	45.1	0	0	---	0.00	29.815 
03:45	56.2	56.2	56.2	66	45.0	0	0	---	0.00	29.816 
03:50	56.0	56.0	56.0	68	45.6	0	0	---	0.00	29.816 
03:55	55.9	55.9	55.9	67	45.1	0	0	---	0.00	29.816 
04:00	55.7	55.7	55.7	68	45.3	0	0	---	0.00	29.815 
04:05	55.6	55.6	55.6	68	45.2	0	0	---	0.00	29.815 
04:10	55.4	55.4	55.4	68	45.0	0	0	---	0.00	29.815 
04:15	55.3	55.3	55.3	68	44.9	0	0	---	0.00	29.816 
04:20	55.3	55.3	55.3	69	45.3	0	0	---	0.00	29.816 
04:25	55.1	55.1	55.1	68	44.7	0	0	---	0.00	29.816 
04:30	55.1	55.1	55.1	69	45.1	0	0	---	0.00	29.816 
04:35	55.0	55.0	55.0	69	45.0	0	0	---	0.00	29.816 
04:40	55.1	55.1	55.1	69	45.1	0	0	---	0.00	29.816 
04:45	55.0	55.0	55.0	69	45.0	0	0	---	0.00	29.817 
04:50	54.8	54.8	54.8	69	44.8	0	0	---	0.00	29.817 
04:55	54.5	54.5	54.5	69	44.5	0	0	---	0.00	29.817 
05:00	54.4	54.4	54.4	70	44.8	0	0	---	0.00	29.819 
05:05	54.1	54.1	54.1	71	44.9	0	0	---	0.00	29.819 
05:10	53.9	53.9	53.9	72	45.1	0	0	---	0.00	29.819 
05:15	53.6	53.6	53.6	73	45.2	0	0	---	0.00	29.828 
05:20	53.6	53.6	53.6	73	45.2	0	0	---	0.00	29.828 
05:25	53.5	53.5	53.5	74	45.4	0	0	---	0.00	29.828 
05:30	53.3	53.3	53.3	74	45.2	0	0	---	0.00	29.830 
05:35	53.1	53.1	53.1	74	45.0	0	0	---	0.00	29.830 
05:40	52.9	52.9	52.9	74	44.8	0	0	---	0.00	29.830 
05:45	52.9	52.9	52.9	75	45.2	0	0	---	0.00	29.833 
05:50	53.1	53.1	53.1	75	45.4	0	0	---	0.00	29.833 
05:55	53.1	53.1	53.1	75	45.4	0	0	---	0.00	29.833 
06:00	53.3	53.3	53.3	74	45.2	0	0	---	0.00	29.833 
06:05	53.5	53.5	53.5	74	45.4	0	0	---	0.00	29.833 
06:10	53.5	53.5	53.5	74	45.4	0	0	---	0.00	29.833 
06:15	53.3	53.3	53.3	74	45.2	0	0	---	0.00	29.830 
06:20	53.2	53.2	53.2	74	45.1	0	0	---	0.00	29.830 
06:25	53.1	53.1	53.1	75	45.4	0	0	---	0.00	29.830 
06:30	52.9	52.9	52.9	76	45.5	0	0	---	0.00	29.833 
06:35	52.9	52.9	52.9	77	45.9	0	0	---	0.00	29.833 
06:40	52.8	52.8	52.8	77	45.8	0	0	---	0.00	29.833 
06:45	52.8	52.8	52.8	77	45.8	0	0	---	0.00	29.833 
06:50	52.9	52.9	52.9	77	45.9	0	0	---	0.00	29.833 
06:55	53.2	53.2	53.2	77	46.2	0	0	---	0.00	29.833 
07:00	53.6	53.6	53.6	76	46.2	0	0	---	0.00	29.837 
07:05	53.9	53.9	53.9	76	46.5	0	0	---	0.00	29.837 
07:10	54.2	54.2	54.2	75	46.4	0	0	---	0.00	29.837 
07:15	54.7	54.7	54.7	75	46.9	0	0	---	0.00	29.842 
07:20	55.4	55.4	55.4	73	46.9	0	0	---	0.00	29.842 
07:25	56.3	56.3	56.3	71	47.0	0	2	315	0.00	29.842 
07:30	57.0	57.0	57.0	70	47.3	0	1	315	0.00	29.846 
07:35	57.6	57.6	57.6	69	47.5	0	0	---	0.00	29.846 
07:40	58.3	58.3	58.3	68	47.8	0	0	---	0.00	29.846 
07:45	59.0	59.0	59.0	65	47.2	0	0	---	0.00	29.838 
07:50	59.8	59.8	59.8	64	47.6	0	0	---	0.00	29.838 
07:55	60.7	60.7	60.7	63	48.0	0	1	315	0.00	29.838 
08:00	61.3	61.3	61.3	61	47.7	0	1	315	0.00	29.838 
08:05	62.0	62.0	62.0	59	47.5	0	0	---	0.00	29.838 
08:10	62.4	62.4	62.4	58	47.4	0	1	315	0.00	29.838 
08:15	63.1	63.1	63.1	56	47.1	0	0	---	0.00	29.837 
08:20	63.7	63.7	63.7	57	48.2	0	1	315	0.00	29.837 
08:25	64.8	64.8	64.8	50	45.7	0	1	315	0.00	29.837 
08:30	65.5	65.5	65.5	50	46.4	0	0	---	0.00	29.829 
08:35	66.1	66.1	66.1	49	46.4	0	0	---	0.00	29.829 
08:40	66.6	66.6	66.6	48	46.3	0	0	---	0.00	29.829 
08:45	67.4	67.4	67.4	48	47.0	0	1	315	0.00	29.830 
08:50	68.1	68.1	68.1	44	45.4	0	1	315	0.00	29.830 
08:55	68.1	68.1	68.1	45	45.9	0	0	---	0.00	29.830 
09:00	68.6	68.6	68.6	44	45.8	0	2	315	0.00	29.835 
09:05	69.8	69.8	69.8	40	44.4	0	2	315	0.00	29.835 
09:10	70.9	70.9	70.9	40	45.4	0	1	315	0.00	29.835 
09:15	71.6	71.6	71.6	40	46.0	1	3	0	0.00	29.834 
09:20	72.5	72.5	72.5	38	45.4	0	2	0	0.00	29.834 
09:25	72.8	72.8	72.8	39	46.4	0	2	0	0.00	29.834 
09:30	72.0	72.0	72.0	37	44.3	1	2	0	0.00	29.829 
09:35	71.5	71.5	71.5	40	45.9	0	2	0	0.00	29.829 
09:40	71.3	71.3	71.3	40	45.7	1	3	0	0.00	29.829 
09:45	70.9	70.9	70.9	37	43.3	1	3	315	0.00	29.832 
09:50	70.9	70.9	70.9	38	44.0	1	4	315	0.00	29.832 
09:55	71.5	71.5	71.5	40	45.9	0	2	292	0.00	29.832 
10:00	71.8	71.8	71.8	37	44.1	1	4	292	0.00	29.830 
10:05	72.3	72.3	72.3	34	42.3	1	3	292	0.00	29.830 
10:10	72.5	72.5	72.5	36	44.0	1	4	292	0.00	29.830 
10:15	72.3	72.3	72.3	35	43.1	2	4	292	0.00	29.828 
10:20	72.3	72.3	72.3	35	43.1	2	4	270	0.00	29.828 
10:25	72.1	72.1	72.1	34	42.2	3	5	270	0.00	29.828 
10:30	72.3	72.3	72.3	32	40.8	2	4	270	0.00	29.828 
10:35	72.5	72.5	72.5	32	41.0	2	5	248	0.00	29.828 
10:40	72.7	72.7	72.7	34	42.7	1	4	292	0.00	29.828 
10:45	72.8	72.8	72.8	34	42.8	2	6	292	0.00	29.826 
10:50	72.7	72.7	72.7	34	42.7	2	4	292	0.00	29.826 
10:55	72.7	72.7	72.7	33	41.9	2	5	270	0.00	29.826 
11:00	72.3	72.3	72.3	32	40.8	4	6	270	0.00	29.826 
11:05	72.5	72.5	72.5	32	41.0	3	7	270	0.00	29.826 
11:10	72.5	72.5	72.5	33	41.7	2	7	270	0.00	29.826 
11:15	73.0	73.0	73.0	32	41.4	3	5	270	0.00	29.828 
11:20	73.2	73.2	73.2	30	39.9	4	7	270	0.00	29.828 
11:25	73.3	73.3	73.3	31	40.8	3	6	270	0.00	29.828 
11:30	72.8	72.8	72.8	29	38.7	4	7	292	0.00	29.829 
11:35	73.0	73.0	73.0	31	40.6	3	4	315	0.00	29.829 
11:40	73.5	73.5	73.5	28	38.4	3	6	270	0.00	29.829 
11:45	73.9	73.9	73.9	28	38.7	3	6	270	0.00	29.829 
11:50	73.3	73.3	73.3	29	39.1	4	9	292	0.00	29.829 
11:55	73.3	73.3	73.3	30	40.0	3	9	270	0.00	29.829 
12:00	73.5	73.5	73.5	29	39.3	5	10	270	0.00	29.824 
12:05	73.7	73.7	73.7	30	40.3	2	5	270	0.00	29.824 
12:10	74.2	74.2	74.2	28	39.0	3	9	225	0.00	29.824 
12:15	73.9	73.9	73.9	28	38.7	4	8	270	0.00	29.829 
12:20	73.7	73.7	73.7	28	38.6	5	9	270	0.00	29.829 
12:25	73.9	73.9	73.9	29	39.6	3	7	270	0.00	29.829 
12:30	74.0	74.0	74.0	29	39.7	3	6	270	0.00	29.821 
12:35	73.5	73.5	73.5	29	39.3	2	5	315	0.00	29.821 
12:40	73.5	73.5	73.5	30	40.2	3	6	292	0.00	29.821 
12:45	74.4	74.4	74.4	30	40.9	3	6	315	0.00	29.817 
12:50	74.4	74.4	74.4	29	40.1	4	9	270	0.00	29.817 
12:55	74.7	74.7	74.7	30	41.2	2	6	270	0.00	29.817 
13:00	74.9	74.9	74.9	28	39.6	3	8	270	0.00	29.813 
13:05	74.4	74.4	74.4	30	40.9	3	5	270	0.00	29.813 
13:10	74.4	74.4	74.4	28	39.2	2	5	292	0.00	29.813 
13:15	73.5	73.5	73.5	28	38.4	2	4	315	0.00	29.820 
13:20	73.3	73.3	73.3	31	40.8	2	4	292	0.00	29.820 
13:25	74.2	74.2	74.2	29	39.9	2	6	270	0.00	29.820 
13:30	74.0	74.0	74.0	29	39.7	2	5	315	0.00	29.819 
13:35	74.6	74.6	74.6	27	38.4	3	6	270	0.00	29.819 
13:40	75.1	75.1	76.8	28	39.8	3	5	270	0.00	29.819 
13:45	75.8	75.8	77.0	27	39.4	3	5	270	0.00	29.820 
13:50	76.0	76.0	77.1	28	40.5	2	6	270	0.00	29.820 
13:55	75.8	75.8	77.0	27	39.4	3	7	270	0.00	29.820 
14:00	75.4	75.4	76.8	27	39.1	3	6	270	0.00	29.818 
14:05	75.6	75.6	76.9	27	39.2	4	9	270	0.00	29.818 
14:10	75.6	75.6	77.0	28	40.2	3	7	270	0.00	29.818 
14:15	76.5	76.5	77.3	27	40.0	2	5	270	0.00	29.818 
14:20	76.5	76.5	77.2	26	39.0	3	8	270	0.00	29.818 
14:25	76.5	76.5	77.3	27	40.0	3	5	270	0.00	29.818 
14:30	76.3	76.3	77.2	28	40.8	3	5	270	0.00	29.815 
14:35	77.2	77.2	77.5	26	39.6	3	7	270	0.00	29.815 
14:40	77.2	77.2	77.4	25	38.6	4	9	270	0.00	29.815 
14:45	76.8	76.8	77.4	27	40.3	2	5	270	0.00	29.816 
14:50	76.5	76.5	77.2	26	39.0	3	9	270	0.00	29.816 
14:55	76.3	76.3	77.1	26	38.9	3	9	270	0.00	29.816 
15:00	76.8	76.8	77.3	26	39.3	3	6	270	0.00	29.807 
15:05	76.8	76.8	77.2	25	38.3	3	6	270	0.00	29.807 
15:10	77.2	77.2	77.4	25	38.6	3	6	270	0.00	29.807 
15:15	76.7	76.7	77.2	25	38.2	4	9	270	0.00	29.807 
15:20	76.0	76.0	76.9	25	37.6	4	9	270	0.00	29.807 
15:25	76.0	76.0	77.1	27	39.6	2	5	270	0.00	29.807 
15:30	76.7	76.7	77.2	25	38.2	3	6	270	0.00	29.806 
15:35	76.7	76.7	77.2	25	38.2	3	6	270	0.00	29.806 
15:40	77.0	77.0	77.3	25	38.5	1	4	315	0.00	29.806 
15:45	77.4	77.4	77.5	25	38.8	2	5	292	0.00	29.800 
15:50	77.9	77.9	77.7	25	39.2	2	6	270	0.00	29.800 
15:55	78.1	78.1	77.8	25	39.4	2	4	270	0.00	29.800 
16:00	78.1	78.1	77.8	25	39.4	3	7	270	0.00	29.799 
16:05	77.6	77.6	77.6	25	39.0	2	4	248	0.00	29.799 
16:10	77.9	77.9	77.8	26	40.2	2	6	270	0.00	29.799 
16:15	78.1	78.1	77.9	26	40.4	3	5	270	0.00	29.799 
16:20	77.6	77.6	77.7	27	41.0	3	6	315	0.00	29.799 
16:25	77.6	77.6	77.8	28	41.9	3	9	292	0.00	29.799 
16:30	76.7	76.7	77.5	29	42.0	4	7	292	0.00	29.801 
16:35	76.1	76.1	77.3	30	42.4	3	8	315	0.00	29.801 
16:40	75.6	75.6	77.2	31	42.8	2	6	315	0.00	29.801 
16:45	75.4	75.4	77.2	32	43.5	2	7	45	0.00	29.809 
16:50	75.4	75.4	77.1	31	42.6	2	6	270	0.00	29.809 
16:55	76.0	76.0	77.3	31	43.2	1	4	270	0.00	29.809 
17:00	76.3	76.3	77.5	32	44.3	2	6	292	0.00	29.808 
17:05	76.1	76.1	77.4	31	43.3	2	5	0	0.00	29.808 
17:10	75.6	75.6	77.3	33	44.5	2	6	270	0.00	29.808 
17:15	75.4	75.4	77.3	33	44.3	2	9	292	0.00	29.809 
17:20	74.9	74.9	74.9	32	43.0	2	6	292	0.00	29.809 
17:25	74.6	74.6	74.6	35	45.1	2	5	315	0.00	29.809 
17:30	74.0	74.0	74.0	35	44.6	2	4	292	0.00	29.813 
17:35	74.0	74.0	74.0	36	45.3	1	3	292	0.00	29.813 
17:40	74.6	74.6	74.6	34	44.4	1	7	270	0.00	29.813 
17:45	74.7	74.7	74.7	34	44.4	2	9	315	0.00	29.813 
17:50	74.4	74.4	74.4	33	43.4	2	5	292	0.00	29.813 
17:55	73.5	73.5	73.5	34	43.4	2	4	292	0.00	29.813 
18:00	73.2	73.2	73.2	34	43.1	1	5	292	0.00	29.815 
18:05	73.0	73.0	73.0	37	45.2	2	6	270	0.00	29.815 
18:10	73.2	73.2	73.2	35	43.9	2	6	270	0.00	29.815 
18:15	73.0	73.0	73.0	35	43.7	2	5	315	0.00	29.823 
18:20	72.7	72.7	72.7	35	43.5	3	5	270	0.00	29.823 
18:25	72.3	72.3	72.3	36	43.8	1	4	270	0.00	29.823 
18:30	72.5	72.5	72.5	35	43.3	2	5	270	0.00	29.825 
18:35	72.5	72.5	72.5	35	43.3	1	5	338	0.00	29.825 
18:40	72.1	72.1	72.1	35	42.9	2	6	292	0.00	29.825 
18:45	71.8	71.8	71.8	35	42.7	2	5	292	0.00	29.827 
18:50	71.3	71.3	71.3	35	42.2	1	5	270	0.00	29.827 
18:55	71.1	71.1	71.1	37	43.5	1	3	292	0.00	29.827 
19:00	71.1	71.1	71.1	37	43.5	2	5	270	0.00	29.828 
19:05	71.3	71.3	71.3	35	42.2	1	3	315	0.00	29.828 
19:10	70.9	70.9	70.9	35	41.9	2	5	292	0.00	29.828 
19:15	70.8	70.8	70.8	36	42.5	1	3	292	0.00	29.824 
19:20	70.8	70.8	70.8	36	42.5	1	5	292	0.00	29.824 
19:25	70.4	70.4	70.4	36	42.2	1	5	292	0.00	29.824 
19:30	70.3	70.3	70.3	37	42.8	1	5	270	0.00	29.827 
19:35	70.1	70.1	70.1	38	43.3	1	4	315	0.00	29.827 
19:40	69.8	69.8	69.8	38	43.0	1	4	315	0.00	29.827 
19:45	69.6	69.6	69.6	38	42.9	2	5	270	0.00	29.833 
19:50	69.4	69.4	69.4	38	42.7	1	4	315	0.00	29.833 
19:55	69.1	69.1	69.1	39	43.1	1	3	315	0.00	29.833 
20:00	68.9	68.9	68.9	39	42.9	1	4	315	0.00	29.837 
20:05	68.6	68.6	68.6	39	42.6	1	3	315	0.00	29.837 
20:10	68.4	68.4	68.4	39	42.5	1	4	292	0.00	29.837 
20:15	68.3	68.3	68.3	40	43.0	1	3	292	0.00	29.842 
20:20	68.3	68.3	68.3	40	43.0	1	3	292	0.00	29.842 
20:25	67.8	67.8	67.8	40	42.6	0	2	292	0.00	29.842 
20:30	67.4	67.4	67.4	40	42.2	1	3	292	0.00	29.847 
20:35	67.3	67.3	67.3	41	42.8	0	2	315	0.00	29.847 
20:40	66.9	66.9	66.9	42	43.1	0	2	315	0.00	29.847 
20:45	66.6	66.6	66.6	43	43.4	1	4	68	0.00	29.850 
20:50	66.3	66.3	66.3	43	43.1	1	4	315	0.00	29.850 
20:55	66.1	66.1	66.1	43	42.9	1	4	292	0.00	29.850 
21:00	65.8	65.8	65.8	44	43.3	1	5	270	0.00	29.852 
21:05	65.6	65.6	65.6	44	43.1	1	4	270	0.00	29.852 
21:10	65.5	65.5	65.5	45	43.6	1	3	270	0.00	29.852 
21:15	65.2	65.2	65.2	45	43.3	1	4	270	0.00	29.858 
21:20	65.0	65.0	65.0	46	43.7	1	4	270	0.00	29.858 
21:25	64.8	64.8	64.8	46	43.5	0	2	270	0.00	29.858 
21:30	64.5	64.5	64.5	47	43.8	0	2	270	0.00	29.866 
21:35	64.3	64.3	64.3	48	44.2	1	3	270	0.00	29.866 
21:40	64.0	64.0	64.0	49	44.5	0	2	270	0.00	29.866 
21:45	63.7	63.7	63.7	49	44.2	0	2	270	0.00	29.869 
21:50	63.5	63.5	63.5	49	44.0	1	4	270	0.00	29.869 
21:55	63.4	63.4	63.4	50	44.4	0	1	270	0.00	29.869 
22:00	63.2	63.2	63.2	50	44.2	1	2	270	0.00	29.878 
22:05	63.1	63.1	63.1	50	44.2	1	4	270	0.00	29.878 
22:10	62.7	62.7	62.7	51	44.3	0	1	270	0.00	29.878 
22:15	62.6	62.6	62.6	51	44.2	0	2	270	0.00	29.883 
22:20	62.4	62.4	62.4	52	44.5	0	2	270	0.00	29.883 
22:25	62.1	62.1	62.1	52	44.3	0	3	270	0.00	29.883 
22:30	62.0	62.0	62.0	53	44.7	0	1	270	0.00	29.890 
22:35	61.8	61.8	61.8	53	44.5	0	1	270	0.00	29.890 
22:40	61.5	61.5	61.5	54	44.7	0	1	270	0.00	29.890 
22:45	61.3	61.3	61.3	54	44.5	1	3	270	0.00	29.892 
22:50	61.2	61.2	61.2	54	44.4	0	1	270	0.00	29.892 
22:55	61.0	61.0	61.0	54	44.2	0	1	270	0.00	29.892 
23:00	60.7	60.7	60.7	55	44.4	0	2	270	0.00	29.886 
23:05	60.5	60.5	60.5	55	44.2	0	2	270	0.00	29.886 
23:10	60.4	60.4	60.4	55	44.2	1	2	270	0.00	29.886 
23:15	60.2	60.2	60.2	55	44.0	0	2	270	0.00	29.881 
23:20	60.1	60.1	60.1	55	43.9	0	2	270	0.00	29.881 
23:25	59.9	59.9	59.9	56	44.2	0	2	270	0.00	29.881 
23:30	59.6	59.6	59.6	56	43.9	0	1	270	0.00	29.880 
23:35	59.5	59.5	59.5	56	43.8	0	3	270	0.00	29.880 
23:40	59.3	59.3	59.3	56	43.6	0	1	270	0.00	29.880 
23:45	59.0	59.0	59.0	56	43.3	0	2	270	0.00	29.884 
23:50	58.9	58.9	58.9	57	43.7	0	1	270	0.00	29.884 
23:55	58.7	58.7	58.7	57	43.5	0	1	270	0.00	29.884 

CoCoRaHS
IN-AL-39
A2 Web Hosting
Creative Commons License
GoDaddy
search engine by freefind advanced

loaded 2018-11-15 05:04:44 • last modified 2010-11-18 10:43:29
Privacy PolicyDisclaimer
• wx.awcolley.com is powered by PmWiki v.2002016 •
• all content (unless otherwise noted) © 2018 A W Colley